Time;durP1;ratioP1;P1;durP2;ratioP2;P2;SDS_P1;SDS_P2;PMS_P1;PMS_P2;Temp;Humidity;BMP_temperature;BMP_pressure;BME280_temperature;BME280_humidity;BME280_pressure;Samples;Min_cycle;Max_cycle;Signal;HPM_P1;HPM_P2
2024/02/29 00:00:43;;;;;;;;;;;;;;;;;;5032303;28;19920;-74
2024/02/29 00:03:11;;;;;;;;;;;;;;;;;;5029929;28;20320;-75
2024/02/29 00:05:37;;;;;;;;;;;;;;;;;;5013286;28;20050;-75
2024/02/29 00:08:02;;;;;;;;;;;;;;;;;;5030333;28;19916;-73
2024/02/29 00:10:28;;;;;;;;;;;;;;;;;;5012619;28;19927;-73
2024/02/29 00:12:54;;;;;;;;;;;;;;;;;;5031569;28;19917;-73
2024/02/29 00:15:19;;;;;;;;;;;;;;;;;;5032155;28;19923;-75
2024/02/29 00:17:47;;;;;;;;;;;;;;;;;;5030994;28;19921;-74
2024/02/29 00:20:12;;;;;;;;;;;;;;;;;;5029862;28;19921;-74
2024/02/29 00:22:38;;;;;;;;;;;;;;;;;;5030386;28;20506;-73
2024/02/29 00:25:04;;;;;;;;;;;;;;;;;;5013842;28;19932;-75
2024/02/29 00:27:30;;;;;;;;;;;;;;;;;;5031273;28;19958;-75
2024/02/29 00:29:56;;;;;;;;;;;;;;;;;;5029823;28;19925;-73
2024/02/29 00:32:24;;;;;;;;;;;;;;;;;;5032446;28;20003;-74
2024/02/29 00:34:49;;;;;;;;;;;;;;;;;;5032007;28;19997;-73
2024/02/29 00:37:15;;;;;;;;;;;;;;;;;;5027777;28;19924;-74
2024/02/29 00:39:42;;;;;;;;;;;;;;;;;;5027413;28;19920;-74
2024/02/29 00:42:08;;;;;;;;;;;;;;;;;;5011127;28;19921;-74
2024/02/29 00:44:33;;;;;;;;;;;;;;;;;;5030348;28;20395;-72
2024/02/29 00:46:58;;;;;;;;;;;;;;;;;;5014300;28;20490;-74
2024/02/29 00:49:24;;;;;;;;;;;;;;;;;;5028094;28;19998;-74
2024/02/29 00:51:49;;;;;;;;;;;;;;;;;;5010595;28;20315;-76
2024/02/29 00:54:15;;;;;;;;;;;;;;;;;;5029561;28;20012;-73
2024/02/29 00:56:40;;;;;;;;;;;;;;;;;;5032264;28;19921;-72
2024/02/29 00:59:05;;;;;;;;;;;;;;;;;;5025973;28;20015;-74
2024/02/29 01:01:33;;;;;;;;;;;;;;;;;;5013550;28;19967;-73
2024/02/29 01:03:58;;;;;;;;;;;;;;;;;;5008909;28;20011;-74
2024/02/29 01:06:24;;;;;;;;;;;;;;;;;;5010897;28;19920;-76
2024/02/29 01:08:52;;;;;;;;;;;;;;;;;;5028796;28;19913;-74
2024/02/29 01:11:20;;;;;;;;;;;;;;;;;;5030636;28;20330;-75
2024/02/29 01:13:45;;;;;;;;;;;;;;;;;;4994924;28;19917;-74
2024/02/29 01:16:11;;;;;;;;;;;;;;;;;;5030098;28;20012;-74
2024/02/29 01:18:40;;;;;;;;;;;;;;;;;;5027341;28;19943;-75
2024/02/29 01:21:08;;;;;;;;;;;;;;;;;;5031066;28;19921;-74
2024/02/29 01:23:36;;;;;;;;;;;;;;;;;;5029040;28;19924;-74
2024/02/29 01:26:03;;;;;;;;;;;;;;;;;;5031379;28;19920;-73
2024/02/29 01:28:29;;;;;;;;;;;;;;;;;;5029762;28;20315;-73
2024/02/29 01:30:57;;;;;;;;;;;;;;;;;;5030617;28;19921;-73
2024/02/29 01:33:22;;;;;;;;;;;;;;;;;;5009163;28;19928;-77
2024/02/29 01:35:50;;;;;;;;;;;;;;;;;;5027503;28;20007;-73
2024/02/29 01:38:15;;;;;;;;;;;;;;;;;;5031317;28;19920;-74
2024/02/29 01:40:41;;;;;;;;;;;;;;;;;;5031402;28;19995;-74
2024/02/29 01:43:06;;;;;;;;;;;;;;;;;;5010759;28;19917;-74
2024/02/29 01:45:34;;;;;;;;;;;;;;;;;;5025783;28;19987;-74
2024/02/29 01:48:02;;;;;;;;;;;;;;;;;;5030588;28;20169;-76
2024/02/29 01:50:30;;;;;;;;;;;;;;;;;;5027408;28;20364;-74
2024/02/29 01:52:55;;;;;;;;;;;;;;;;;;5030855;28;19917;-75
2024/02/29 01:55:20;;;;;;;;;;;;;;;;;;4996024;28;19916;-72
2024/02/29 01:57:46;;;;;;;;;;;;;;;;;;5027635;28;21958;-73
2024/02/29 02:00:11;;;;;;;;;;;;;;;;;;4995002;28;20451;-76
2024/02/29 02:02:37;;;;;;;;;;;;;;;;;;5030675;28;19917;-74
2024/02/29 02:05:03;;;;;;;;;;;;;;;;;;5029902;28;19921;-72
2024/02/29 02:07:28;;;;;;;;;;;;;;;;;;5030565;28;19966;-73
2024/02/29 02:09:53;;;;;;;;;;;;;;;;;;5010729;28;19917;-73
2024/02/29 02:12:19;;;;;;;;;;;;;;;;;;5012038;28;19963;-75
2024/02/29 02:14:44;;;;;;;;;;;;;;;;;;5009284;28;20404;-74
2024/02/29 02:17:09;;;;;;;;;;;;;;;;;;5028525;28;19920;-74
2024/02/29 02:19:35;;;;;;;;;;;;;;;;;;5030235;28;20016;-73
2024/02/29 02:22:03;;;;;;;;;;;;;;;;;;5033302;28;19917;-75
2024/02/29 02:24:29;;;;;;;;;;;;;;;;;;5028714;28;19974;-73
2024/02/29 02:26:54;;;;;;;;;;;;;;;;;;5033684;28;19924;-76
2024/02/29 02:29:25;;;;;;;;;;;;;;;;;;5011189;28;19933;-77
2024/02/29 02:31:50;;;;;;;;;;;;;;;;;;5008485;28;19917;-73
2024/02/29 02:34:16;;;;;;;;;;;;;;;;;;5027097;28;20339;-74
2024/02/29 02:36:44;;;;;;;;;;;;;;;;;;5014996;28;20360;-74
2024/02/29 02:39:11;;;;;;;;;;;;;;;;;;5013100;28;20027;-74
2024/02/29 02:41:37;;;;;;;;;;;;;;;;;;5027893;28;20018;-73
2024/02/29 02:44:05;;;;;;;;;;;;;;;;;;5007786;28;20322;-76
2024/02/29 02:46:30;;;;;;;;;;;;;;;;;;5012871;28;19925;-73
2024/02/29 02:48:58;;;;;;;;;;;;;;;;;;5013263;28;19921;-74
2024/02/29 02:51:23;;;;;;;;;;;;;;;;;;5011596;28;19921;-73
2024/02/29 02:53:50;;;;;;;;;;;;;;;;;;5008905;28;19921;-76
2024/02/29 02:56:16;;;;;;;;;;;;;;;;;;5013418;28;20304;-74
2024/02/29 02:58:41;;;;;;;;;;;;;;;;;;5026398;28;19917;-74
2024/02/29 03:01:07;;;;;;;;;;;;;;;;;;5010700;28;20345;-72
2024/02/29 03:03:32;;;;;;;;;;;;;;;;;;5012943;28;21096;-77
2024/02/29 03:05:57;;;;;;;;;;;;;;;;;;5007982;28;19944;-74
2024/02/29 03:08:26;;;;;;;;;;;;;;;;;;5013080;28;20024;-73
2024/02/29 03:10:51;;;;;;;;;;;;;;;;;;5011913;28;19928;-74
2024/02/29 03:13:16;;;;;;;;;;;;;;;;;;5027673;28;19964;-74
2024/02/29 03:15:44;;;;;;;;;;;;;;;;;;5012029;28;20259;-74
2024/02/29 03:18:09;;;;;;;;;;;;;;;;;;5012150;28;20027;-76
2024/02/29 03:20:34;;;;;;;;;;;;;;;;;;5011730;28;20527;-75
2024/02/29 03:22:59;;;;;;;;;;;;;;;;;;5022551;28;19943;-74
2024/02/29 03:25:25;;;;;;;;;;;;;;;;;;5006981;28;20038;-74
2024/02/29 03:27:51;;;;;;;;;;;;;;;;;;5026093;28;19921;-73
2024/02/29 03:30:17;;;;;;;;;;;;;;;;;;5032469;28;20304;-74
2024/02/29 03:32:42;;;;;;;;;;;;;;;;;;5031693;28;20030;-73
2024/02/29 03:38:24;;;;;;;;;;;;;;;;;;5030276;28;19974;-74
2024/02/29 03:40:51;;;;;;;;;;;;;;;;;;5032551;28;20380;-75
2024/02/29 03:43:16;;;;;;;;;;;;;;;;;;5030892;28;19960;-74
2024/02/29 03:45:43;;;;;;;;;;;;;;;;;;5011896;28;19936;-74
2024/02/29 03:48:08;;;;;;;;;;;;;;;;;;5027145;28;19921;-74
2024/02/29 03:50:34;;;;;;;;;;;;;;;;;;5032344;28;19921;-73
2024/02/29 03:52:59;;;;;;;;;;;;;;;;;;5029371;28;19916;-73
2024/02/29 03:55:24;;;;;;;;;;;;;;;;;;5032884;28;20774;-75
2024/02/29 03:57:50;;;;;;;;;;;;;;;;;;5032051;28;19921;-72
2024/02/29 04:00:15;;;;;;;;;;;;;;;;;;5026253;28;19951;-74
2024/02/29 04:02:41;;;;;;;;;;;;;;;;;;5031699;28;19920;-72
2024/02/29 04:05:09;;;;;;;;;;;;;;;;;;5031134;28;19924;-73
2024/02/29 04:07:36;;;;;;;;;;;;;;;;;;5031664;28;19916;-75
2024/02/29 04:10:01;;;;;;;;;;;;;;;;;;5031165;28;19917;-73
2024/02/29 04:12:26;;;;;;;;;;;;;;;;;;5029609;28;20299;-74
2024/02/29 04:14:52;;;;;;;;;;;;;;;;;;5014154;28;19945;-74
2024/02/29 04:17:18;;;;;;;;;;;;;;;;;;5030147;28;20011;-72
2024/02/29 04:19:45;;;;;;;;;;;;;;;;;;5029092;28;19925;-73
2024/02/29 04:22:13;;;;;;;;;;;;;;;;;;5028135;28;21324;-74
2024/02/29 04:24:38;;;;;;;;;;;;;;;;;;5027972;28;19917;-73
2024/02/29 04:27:03;;;;;;;;;;;;;;;;;;5030799;28;19974;-73
2024/02/29 04:29:29;;;;;;;;;;;;;;;;;;5028265;28;19982;-73
2024/02/29 04:31:54;;;;;;;;;;;;;;;;;;5031180;28;19917;-72
2024/02/29 04:34:19;;;;;;;;;;;;;;;;;;5029211;28;19999;-74
2024/02/29 04:36:45;;;;;;;;;;;;;;;;;;5031086;28;20009;-73
2024/02/29 04:39:10;;;;;;;;;;;;;;;;;;5011095;28;20541;-74
2024/02/29 04:41:38;;;;;;;;;;;;;;;;;;5027744;28;19924;-77
2024/02/29 04:44:03;;;;;;;;;;;;;;;;;;5029387;28;19955;-73
2024/02/29 04:46:31;;;;;;;;;;;;;;;;;;5027309;28;19924;-73
2024/02/29 04:48:56;;;;;;;;;;;;;;;;;;5029473;28;20319;-73
2024/02/29 04:51:21;;;;;;;;;;;;;;;;;;5028980;28;19920;-73
2024/02/29 04:53:47;;;;;;;;;;;;;;;;;;5029293;28;20023;-76
2024/02/29 04:56:12;;;;;;;;;;;;;;;;;;5010405;28;20031;-73
2024/02/29 04:58:40;;;;;;;;;;;;;;;;;;5028764;28;19962;-73
2024/02/29 05:01:05;;;;;;;;;;;;;;;;;;5028971;28;19939;-73
2024/02/29 05:03:32;;;;;;;;;;;;;;;;;;5026835;28;19956;-73
2024/02/29 05:05:57;;;;;;;;;;;;;;;;;;5029536;28;19979;-72
2024/02/29 05:08:23;;;;;;;;;;;;;;;;;;5028421;28;20003;-73
2024/02/29 05:10:48;;;;;;;;;;;;;;;;;;5028260;28;20345;-73
2024/02/29 05:13:13;;;;;;;;;;;;;;;;;;5027466;28;20311;-75
2024/02/29 05:15:39;;;;;;;;;;;;;;;;;;5026917;28;20044;-73
2024/02/29 05:18:04;;;;;;;;;;;;;;;;;;5029809;28;19931;-74
2024/02/29 05:20:29;;;;;;;;;;;;;;;;;;5032415;28;19952;-74
2024/02/29 05:22:57;;;;;;;;;;;;;;;;;;5031959;28;19917;-74
2024/02/29 05:25:25;;;;;;;;;;;;;;;;;;5008421;28;19924;-73
2024/02/29 05:27:53;;;;;;;;;;;;;;;;;;5022561;28;20550;-73
2024/02/29 05:30:18;;;;;;;;;;;;;;;;;;5007815;28;19913;-73
2024/02/29 05:32:44;;;;;;;;;;;;;;;;;;5029947;28;19969;-73
2024/02/29 05:35:11;;;;;;;;;;;;;;;;;;5006525;28;19921;-73
2024/02/29 05:37:37;;;;;;;;;;;;;;;;;;5031221;28;20476;-73
2024/02/29 05:40:02;;;;;;;;;;;;;;;;;;5007180;28;19943;-73
2024/02/29 05:42:28;;;;;;;;;;;;;;;;;;5008232;28;20044;-73
2024/02/29 05:44:53;;;;;;;;;;;;;;;;;;5028980;28;19921;-73
2024/02/29 05:47:21;;;;;;;;;;;;;;;;;;5010090;28;20420;-74
2024/02/29 05:49:49;;;;;;;;;;;;;;;;;;5028847;28;19928;-73
2024/02/29 05:52:14;;;;;;;;;;;;;;;;;;5016366;28;19917;-71
2024/02/29 05:54:40;;;;;;;;;;;;;;;;;;5035194;28;21655;-75
2024/02/29 05:57:06;;;;;;;;;;;;;;;;;;5033874;28;20015;-75
2024/02/29 05:59:34;;;;;;;;;;;;;;;;;;5035082;28;20273;-76
2024/02/29 06:02:00;;;;;;;;;;;;;;;;;;5015649;28;19932;-72
2024/02/29 06:04:27;;;;;;;;;;;;;;;;;;5034047;28;19917;-74
2024/02/29 06:10:12;;;;;;;;;;;;;;;;;;5031908;28;20399;-74
2024/02/29 06:12:37;;;;;;;;;;;;;;;;;;5031601;28;19920;-73
2024/02/29 06:15:02;;;;;;;;;;;;;;;;;;5014743;28;20609;-74
2024/02/29 06:17:28;;;;;;;;;;;;;;;;;;5035907;28;19917;-74
2024/02/29 06:19:53;;;;;;;;;;;;;;;;;;5030353;28;19964;-74
2024/02/29 06:22:22;;;;;;;;;;;;;;;;;;5034003;28;20445;-74
2024/02/29 06:24:48;;;;;;;;;;;;;;;;;;5015308;28;19921;-75
2024/02/29 06:27:16;;;;;;;;;;;;;;;;;;5029758;28;19921;-74
2024/02/29 06:29:41;;;;;;;;;;;;;;;;;;5033353;28;20084;-74
2024/02/29 06:32:09;;;;;;;;;;;;;;;;;;5030118;28;20288;-74
2024/02/29 06:34:37;;;;;;;;;;;;;;;;;;5015804;28;20372;-74
2024/02/29 06:37:06;;;;;;;;;;;;;;;;;;5034632;28;20644;-75
2024/02/29 06:39:34;;;;;;;;;;;;;;;;;;5031304;28;19990;-74
2024/02/29 06:41:59;;;;;;;;;;;;;;;;;;5034587;28;19978;-72
2024/02/29 06:44:24;;;;;;;;;;;;;;;;;;5033368;28;20368;-72
2024/02/29 06:46:52;;;;;;;;;;;;;;;;;;5015365;28;19921;-73
2024/02/29 06:49:20;;;;;;;;;;;;;;;;;;5027808;28;19947;-74
2024/02/29 06:51:48;;;;;;;;;;;;;;;;;;5031294;28;19919;-72
2024/02/29 06:54:13;;;;;;;;;;;;;;;;;;5031549;28;20354;-73
2024/02/29 06:56:38;;;;;;;;;;;;;;;;;;5033445;28;19924;-72
2024/02/29 06:59:06;;;;;;;;;;;;;;;;;;5033552;28;19994;-73
2024/02/29 07:01:32;;;;;;;;;;;;;;;;;;5032415;28;20422;-73
2024/02/29 07:03:57;;;;;;;;;;;;;;;;;;5030140;28;19921;-74
2024/02/29 07:06:23;;;;;;;;;;;;;;;;;;5031525;28;20300;-72
2024/02/29 07:08:48;;;;;;;;;;;;;;;;;;5032460;28;19916;-73
2024/02/29 07:11:14;;;;;;;;;;;;;;;;;;5015180;28;19917;-72
2024/02/29 07:13:44;;;;;;;;;;;;;;;;;;5032814;28;20287;-72
2024/02/29 07:19:26;;;;;;;;;;;;;;;;;;5032402;28;20120;-73
2024/02/29 07:25:08;;;;;;;;;;;;;;;;;;5033119;28;19925;-73
2024/02/29 07:27:33;;;;;;;;;;;;;;;;;;5032528;28;19924;-73
2024/02/29 07:29:59;;;;;;;;;;;;;;;;;;5031292;28;20015;-74
2024/02/29 07:32:24;;;;;;;;;;;;;;;;;;5014517;28;22305;-73
2024/02/29 07:34:52;;;;;;;;;;;;;;;;;;5032118;28;20003;-75
2024/02/29 07:37:17;;;;;;;;;;;;;;;;;;5014599;28;19938;-73
2024/02/29 07:39:42;;;;;;;;;;;;;;;;;;5030131;28;19983;-74
2024/02/29 07:42:09;;;;;;;;;;;;;;;;;;5033346;28;20407;-74
2024/02/29 07:44:35;;;;;;;;;;;;;;;;;;5034558;28;19928;-72
2024/02/29 07:47:00;;;;;;;;;;;;;;;;;;5016365;28;19927;-76
2024/02/29 07:49:26;;;;;;;;;;;;;;;;;;5010870;28;19921;-72
2024/02/29 07:51:54;;;;;;;;;;;;;;;;;;5029268;28;19917;-73
2024/02/29 07:54:19;;;;;;;;;;;;;;;;;;5034604;28;20016;-73
2024/02/29 07:56:45;;;;;;;;;;;;;;;;;;5033911;28;19921;-73
2024/02/29 07:59:10;;;;;;;;;;;;;;;;;;5014801;28;19916;-72
2024/02/29 08:01:36;;;;;;;;;;;;;;;;;;5030811;28;19987;-74
2024/02/29 08:04:01;;;;;;;;;;;;;;;;;;4993506;28;19928;-73
2024/02/29 08:06:26;;;;;;;;;;;;;;;;;;5029708;28;19932;-73
2024/02/29 08:08:52;;;;;;;;;;;;;;;;;;5032390;28;19920;-73
2024/02/29 08:11:17;;;;;;;;;;;;;;;;;;5005212;28;19925;-74
2024/02/29 08:13:43;;;;;;;;;;;;;;;;;;5010421;28;20165;-75
2024/02/29 08:16:08;;;;;;;;;;;;;;;;;;5032797;28;20418;-75
2024/02/29 08:18:33;;;;;;;;;;;;;;;;;;5032045;28;19931;-76
2024/02/29 08:20:58;;;;;;;;;;;;;;;;;;5032640;28;19921;-74
2024/02/29 08:23:24;;;;;;;;;;;;;;;;;;5014218;28;19917;-74
2024/02/29 08:25:49;;;;;;;;;;;;;;;;;;5033531;28;19943;-72
2024/02/29 08:28:15;;;;;;;;;;;;;;;;;;5025941;28;19921;-72
2024/02/29 08:30:40;;;;;;;;;;;;;;;;;;5030694;28;19921;-73
2024/02/29 08:33:06;;;;;;;;;;;;;;;;;;5011006;28;19962;-73
2024/02/29 08:35:31;;;;;;;;;;;;;;;;;;5022896;28;19928;-74
2024/02/29 08:37:57;;;;;;;;;;;;;;;;;;5012307;28;20288;-73
2024/02/29 08:40:22;;;;;;;;;;;;;;;;;;5030693;28;20207;-73
2024/02/29 08:42:47;;;;;;;;;;;;;;;;;;5015510;28;20364;-73
2024/02/29 08:48:29;;;;;;;;;;;;;;;;;;5031569;28;20348;-74
2024/02/29 08:50:54;;;;;;;;;;;;;;;;;;5025836;28;20011;-74
2024/02/29 08:53:20;;;;;;;;;;;;;;;;;;5030026;28;20002;-72
2024/02/29 08:59:02;;;;;;;;;;;;;;;;;;5031301;28;19946;-74
2024/02/29 09:01:30;;;;;;;;;;;;;;;;;;5030176;28;19943;-73
2024/02/29 09:03:55;;;;;;;;;;;;;;;;;;5027571;28;19916;-74
2024/02/29 09:06:21;;;;;;;;;;;;;;;;;;5032820;28;20300;-73
2024/02/29 09:08:46;;;;;;;;;;;;;;;;;;5031900;28;20272;-72
2024/02/29 09:11:11;;;;;;;;;;;;;;;;;;5032065;28;19921;-72
2024/02/29 09:13:37;;;;;;;;;;;;;;;;;;5030663;28;20521;-74
2024/02/29 09:16:05;;;;;;;;;;;;;;;;;;5028475;28;19925;-73
2024/02/29 09:18:33;;;;;;;;;;;;;;;;;;5029673;28;20077;-73
2024/02/29 09:20:58;;;;;;;;;;;;;;;;;;5030872;28;19916;-74
2024/02/29 09:23:23;;;;;;;;;;;;;;;;;;5031181;28;19962;-73
2024/02/29 09:25:49;;;;;;;;;;;;;;;;;;5015132;28;19931;-74
2024/02/29 09:28:14;;;;;;;;;;;;;;;;;;5032379;28;19916;-73
2024/02/29 09:30:40;;;;;;;;;;;;;;;;;;5035600;28;19921;-74
2024/02/29 09:33:05;;;;;;;;;;;;;;;;;;5011720;28;19924;-74
2024/02/29 09:35:30;;;;;;;;;;;;;;;;;;5035812;28;19948;-74
2024/02/29 09:37:56;;;;;;;;;;;;;;;;;;5037483;28;19920;-77
2024/02/29 09:40:21;;;;;;;;;;;;;;;;;;5034262;28;19917;-76
2024/02/29 09:42:47;;;;;;;;;;;;;;;;;;5035864;28;19991;-75
2024/02/29 09:45:12;;;;;;;;;;;;;;;;;;5034482;28;19917;-75
2024/02/29 09:54:11;;;;;;;;;;;;;;;;;;5028194;28;20014;-75
2024/02/29 09:56:37;;;;;;;;;;;;;;;;;;5011846;28;20015;-75
2024/02/29 09:59:02;;;;;;;;;;;;;;;;;;5021436;28;20356;-77
2024/02/29 10:01:29;;;;;;;;;;;;;;;;;;5034823;28;19925;-75
2024/02/29 10:03:55;;;;;;;;;;;;;;;;;;5008948;28;19986;-74
2024/02/29 10:06:21;;;;;;;;;;;;;;;;;;5022249;28;20365;-75
2024/02/29 10:15:20;;;;;;;;;;;;;;;;;;5034361;28;20008;-76
2024/02/29 10:17:45;;;;;;;;;;;;;;;;;;5022623;28;19917;-75
2024/02/29 10:20:15;;;;;;;;;;;;;;;;;;5028444;28;20403;-74
2024/02/29 10:22:41;;;;;;;;;;;;;;;;;;5032555;28;19928;-77
2024/02/29 10:25:06;;;;;;;;;;;;;;;;;;5030771;28;19920;-70
2024/02/29 10:27:31;;;;;;;;;;;;;;;;;;5026875;28;19924;-77
2024/02/29 10:29:57;;;;;;;;;;;;;;;;;;5009286;28;20454;-75
2024/02/29 10:32:22;;;;;;;;;;;;;;;;;;5020478;28;19921;-76
2024/02/29 10:34:48;;;;;;;;;;;;;;;;;;5002202;28;19962;-75
2024/02/29 10:37:13;;;;;;;;;;;;;;;;;;5036152;28;19921;-76
2024/02/29 10:39:40;;;;;;;;;;;;;;;;;;5030322;28;20781;-76
2024/02/29 10:42:05;;;;;;;;;;;;;;;;;;5034482;28;19936;-76
2024/02/29 10:44:31;;;;;;;;;;;;;;;;;;5034646;28;19989;-78
2024/02/29 10:46:56;;;;;;;;;;;;;;;;;;5034814;28;19925;-77
2024/02/29 10:49:21;;;;;;;;;;;;;;;;;;5030850;28;20269;-76
2024/02/29 10:51:47;;;;;;;;;;;;;;;;;;5034748;28;19955;-75
2024/02/29 10:54:13;;;;;;;;;;;;;;;;;;5036752;28;20356;-77
2024/02/29 10:56:38;;;;;;;;;;;;;;;;;;5023084;28;19966;-74
2024/02/29 10:59:03;;;;;;;;;;;;;;;;;;5016491;28;19921;-73
2024/02/29 11:01:29;;;;;;;;;;;;;;;;;;5016077;28;20403;-75
2024/02/29 11:03:54;;;;;;;;;;;;;;;;;;5032735;28;20388;-74
2024/02/29 11:06:19;;;;;;;;;;;;;;;;;;5031260;28;19952;-72
2024/02/29 11:08:44;;;;;;;;;;;;;;;;;;5028867;28;19924;-77
2024/02/29 11:11:11;;;;;;;;;;;;;;;;;;5035579;28;19947;-75
2024/02/29 11:13:36;;;;;;;;;;;;;;;;;;5032686;28;19924;-74
2024/02/29 11:16:02;;;;;;;;;;;;;;;;;;5033599;28;19920;-75
2024/02/29 11:18:28;;;;;;;;;;;;;;;;;;5034108;28;20451;-72
2024/02/29 11:24:09;;;;;;;;;;;;;;;;;;5031052;28;19995;-76
2024/02/29 11:26:34;;;;;;;;;;;;;;;;;;5031425;28;20507;-75
2024/02/29 11:29:00;;;;;;;;;;;;;;;;;;5002278;28;19930;-74
2024/02/29 11:31:28;;;;;;;;;;;;;;;;;;4990021;28;19917;-74
2024/02/29 11:33:53;;;;;;;;;;;;;;;;;;4993224;28;19932;-73
2024/02/29 11:36:19;;;;;;;;;;;;;;;;;;4979248;28;20079;-74
2024/02/29 11:38:45;;;;;;;;;;;;;;;;;;4983873;28;20237;-74
2024/02/29 11:41:10;;;;;;;;;;;;;;;;;;4984828;28;19975;-71
2024/02/29 11:43:35;;;;;;;;;;;;;;;;;;4986314;28;19965;-75
2024/02/29 11:46:00;;;;;;;;;;;;;;;;;;4982391;28;21634;-74
2024/02/29 11:48:26;;;;;;;;;;;;;;;;;;4974746;28;19917;-72
2024/02/29 11:50:51;;;;;;;;;;;;;;;;;;4960947;28;19921;-75
2024/02/29 11:53:16;;;;;;;;;;;;;;;;;;4963263;28;19932;-76
2024/02/29 11:55:42;;;;;;;;;;;;;;;;;;4979711;28;19921;-74
2024/02/29 11:58:07;;;;;;;;;;;;;;;;;;4982877;28;20678;-74
2024/02/29 12:00:32;;;;;;;;;;;;;;;;;;4966369;28;19922;-74
2024/02/29 12:02:58;;;;;;;;;;;;;;;;;;4987185;28;19917;-74
2024/02/29 12:05:26;;;;;;;;;;;;;;;;;;4983976;28;20350;-70
2024/02/29 12:07:51;;;;;;;;;;;;;;;;;;4987919;28;20471;-72
2024/02/29 12:10:16;;;;;;;;;;;;;;;;;;4985147;28;20509;-74
2024/02/29 12:12:42;;;;;;;;;;;;;;;;;;4985187;28;19928;-74
2024/02/29 12:15:07;;;;;;;;;;;;;;;;;;4991328;28;19921;-74
2024/02/29 12:17:33;;;;;;;;;;;;;;;;;;4993147;28;19918;-74
2024/02/29 12:19:58;;;;;;;;;;;;;;;;;;4991167;28;19924;-74
2024/02/29 12:22:23;;;;;;;;;;;;;;;;;;4985219;28;19928;-73
2024/02/29 12:24:49;;;;;;;;;;;;;;;;;;4988438;28;19948;-73
2024/02/29 12:27:14;;;;;;;;;;;;;;;;;;4973551;28;20063;-71
2024/02/29 12:29:40;;;;;;;;;;;;;;;;;;4989058;28;19929;-72
2024/02/29 12:32:05;;;;;;;;;;;;;;;;;;5024384;28;19921;-70
2024/02/29 12:34:31;;;;;;;;;;;;;;;;;;5021763;28;20533;-73
2024/02/29 12:36:56;;;;;;;;;;;;;;;;;;5001183;28;19916;-70
2024/02/29 12:39:21;;;;;;;;;;;;;;;;;;4993891;28;20047;-72
2024/02/29 12:41:47;;;;;;;;;;;;;;;;;;5014568;28;19917;-74
2024/02/29 12:44:12;;;;;;;;;;;;;;;;;;5013444;28;19927;-71
2024/02/29 12:46:38;;;;;;;;;;;;;;;;;;4985332;28;20101;-72
2024/02/29 12:49:06;;;;;;;;;;;;;;;;;;5023766;28;20012;-72
2024/02/29 12:51:31;;;;;;;;;;;;;;;;;;4995705;28;19999;-72
2024/02/29 12:53:57;;;;;;;;;;;;;;;;;;4999223;28;20006;-70
2024/02/29 12:56:22;;;;;;;;;;;;;;;;;;5021217;28;19921;-69
2024/02/29 12:58:48;;;;;;;;;;;;;;;;;;5028549;28;20418;-73
2024/02/29 13:01:14;;;;;;;;;;;;;;;;;;5027587;28;20012;-70
2024/02/29 13:03:39;;;;;;;;;;;;;;;;;;5019656;28;19948;-73
2024/02/29 13:06:05;;;;;;;;;;;;;;;;;;5017833;28;20345;-69
2024/02/29 13:08:30;;;;;;;;;;;;;;;;;;5030031;28;19948;-69
2024/02/29 13:10:56;;;;;;;;;;;;;;;;;;5030981;28;19917;-69
2024/02/29 13:13:21;;;;;;;;;;;;;;;;;;5014064;28;19929;-68
2024/02/29 13:15:46;;;;;;;;;;;;;;;;;;5020681;28;20446;-68
2024/02/29 13:18:12;;;;;;;;;;;;;;;;;;5031541;28;19917;-68
2024/02/29 13:20:37;;;;;;;;;;;;;;;;;;5011097;28;19920;-68
2024/02/29 13:23:03;;;;;;;;;;;;;;;;;;5008170;28;19921;-69
2024/02/29 13:25:28;;;;;;;;;;;;;;;;;;5001141;28;20287;-69
2024/02/29 13:27:54;;;;;;;;;;;;;;;;;;5016558;28;19993;-69
2024/02/29 13:30:19;;;;;;;;;;;;;;;;;;5004026;28;19923;-70
2024/02/29 13:32:45;;;;;;;;;;;;;;;;;;4990598;28;20310;-68
2024/02/29 13:35:10;;;;;;;;;;;;;;;;;;5029401;28;19917;-69
2024/02/29 13:37:37;;;;;;;;;;;;;;;;;;4992726;28;19921;-68
2024/02/29 13:40:03;;;;;;;;;;;;;;;;;;5020971;28;20004;-69
2024/02/29 13:42:28;;;;;;;;;;;;;;;;;;4988427;28;20411;-67
2024/02/29 13:44:57;;;;;;;;;;;;;;;;;;5004321;28;19921;-68
2024/02/29 13:47:22;;;;;;;;;;;;;;;;;;5031668;28;19932;-68
2024/02/29 13:49:50;;;;;;;;;;;;;;;;;;5023497;28;20003;-69
2024/02/29 13:52:19;;;;;;;;;;;;;;;;;;5015546;28;19921;-68
2024/02/29 13:54:45;;;;;;;;;;;;;;;;;;5026548;28;19925;-69
2024/02/29 13:57:10;;;;;;;;;;;;;;;;;;5030008;28;20311;-68
2024/02/29 13:59:38;;;;;;;;;;;;;;;;;;5029532;28;19917;-69
2024/02/29 14:02:04;;;;;;;;;;;;;;;;;;5030229;28;20008;-70
2024/02/29 14:04:29;;;;;;;;;;;;;;;;;;5030228;28;20386;-69
2024/02/29 14:06:55;;;;;;;;;;;;;;;;;;5022570;28;20605;-69
2024/02/29 14:09:21;;;;;;;;;;;;;;;;;;5023236;28;19928;-69
2024/02/29 14:11:49;;;;;;;;;;;;;;;;;;5013594;28;20284;-68
2024/02/29 14:14:16;;;;;;;;;;;;;;;;;;5025676;28;19944;-69
2024/02/29 14:16:42;;;;;;;;;;;;;;;;;;4995927;28;19921;-70
2024/02/29 14:19:09;;;;;;;;;;;;;;;;;;5032686;28;20599;-69
2024/02/29 14:21:35;;;;;;;;;;;;;;;;;;5025036;28;20160;-68
2024/02/29 14:24:00;;;;;;;;;;;;;;;;;;5032614;28;19921;-70
2024/02/29 14:26:25;;;;;;;;;;;;;;;;;;5025751;28;20368;-73
2024/02/29 14:28:51;;;;;;;;;;;;;;;;;;5032012;28;19928;-69
2024/02/29 14:31:16;;;;;;;;;;;;;;;;;;5035912;28;20011;-68
2024/02/29 14:33:42;;;;;;;;;;;;;;;;;;5032038;28;20026;-69
2024/02/29 14:36:09;;;;;;;;;;;;;;;;;;5000243;28;20024;-70
2024/02/29 14:38:35;;;;;;;;;;;;;;;;;;5016659;28;19917;-70
2024/02/29 14:41:00;;;;;;;;;;;;;;;;;;5011141;28;19928;-69
2024/02/29 14:43:26;;;;;;;;;;;;;;;;;;5018125;28;20351;-69
2024/02/29 14:45:51;;;;;;;;;;;;;;;;;;4988450;28;19932;-69
2024/02/29 14:48:17;;;;;;;;;;;;;;;;;;4991602;28;19924;-68
2024/02/29 14:50:42;;;;;;;;;;;;;;;;;;5029254;28;19920;-71
2024/02/29 14:53:07;;;;;;;;;;;;;;;;;;5021455;28;19967;-69
2024/02/29 14:55:33;;;;;;;;;;;;;;;;;;5032462;28;19936;-69
2024/02/29 14:58:01;;;;;;;;;;;;;;;;;;5034862;28;19921;-68
2024/02/29 15:00:27;;;;;;;;;;;;;;;;;;5033498;28;19917;-74
2024/02/29 15:02:53;;;;;;;;;;;;;;;;;;5031027;28;19951;-69
2024/02/29 15:05:18;;;;;;;;;;;;;;;;;;5033407;28;20050;-70
2024/02/29 15:07:44;;;;;;;;;;;;;;;;;;5034708;28;20380;-68
2024/02/29 15:10:12;;;;;;;;;;;;;;;;;;5031264;28;20011;-69
2024/02/29 15:12:38;;;;;;;;;;;;;;;;;;5018426;28;20146;-69
2024/02/29 15:15:03;;;;;;;;;;;;;;;;;;5031494;28;20185;-68
2024/02/29 15:17:29;;;;;;;;;;;;;;;;;;5017325;28;19917;-69
2024/02/29 15:19:54;;;;;;;;;;;;;;;;;;5025635;28;19921;-68
2024/02/29 15:22:20;;;;;;;;;;;;;;;;;;5021068;28;20320;-69
2024/02/29 15:24:46;;;;;;;;;;;;;;;;;;4996644;28;19927;-70
2024/02/29 15:27:11;;;;;;;;;;;;;;;;;;5008094;28;20643;-69
2024/02/29 15:29:37;;;;;;;;;;;;;;;;;;5028517;28;19954;-69
2024/02/29 15:32:02;;;;;;;;;;;;;;;;;;5027076;28;20432;-69
2024/02/29 15:34:28;;;;;;;;;;;;;;;;;;5017610;28;20007;-70
2024/02/29 15:36:53;;;;;;;;;;;;;;;;;;5027965;28;20319;-68
2024/02/29 15:39:22;;;;;;;;;;;;;;;;;;5025174;28;20551;-69
2024/02/29 15:41:47;;;;;;;;;;;;;;;;;;5023908;28;19920;-69
2024/02/29 15:44:12;;;;;;;;;;;;;;;;;;4987140;28;19916;-70
2024/02/29 15:46:38;;;;;;;;;;;;;;;;;;5024257;28;20019;-69
2024/02/29 15:49:05;;;;;;;;;;;;;;;;;;5030639;28;20172;-68
2024/02/29 15:51:30;;;;;;;;;;;;;;;;;;5010707;28;20695;-68
2024/02/29 15:53:56;;;;;;;;;;;;;;;;;;5024470;28;20351;-70
2024/02/29 15:56:21;;;;;;;;;;;;;;;;;;5033077;28;20288;-67
2024/02/29 15:58:49;;;;;;;;;;;;;;;;;;5033367;28;20393;-67
2024/02/29 16:01:15;;;;;;;;;;;;;;;;;;5030045;28;19927;-68
2024/02/29 16:03:43;;;;;;;;;;;;;;;;;;5028381;28;19920;-68
2024/02/29 16:06:08;;;;;;;;;;;;;;;;;;5011500;28;19975;-68
2024/02/29 16:08:37;;;;;;;;;;;;;;;;;;5017420;28;20069;-68
2024/02/29 16:11:02;;;;;;;;;;;;;;;;;;5033421;28;20007;-66
2024/02/29 16:13:28;;;;;;;;;;;;;;;;;;5014238;28;19920;-68
2024/02/29 16:15:56;;;;;;;;;;;;;;;;;;4997058;28;19916;-68
2024/02/29 16:18:21;;;;;;;;;;;;;;;;;;5003813;28;19920;-68
2024/02/29 16:20:46;;;;;;;;;;;;;;;;;;5032354;28;19924;-67
2024/02/29 16:23:14;;;;;;;;;;;;;;;;;;5030124;28;19951;-67
2024/02/29 16:25:43;;;;;;;;;;;;;;;;;;5032009;28;19924;-68
2024/02/29 16:28:08;;;;;;;;;;;;;;;;;;5033880;28;19994;-68
2024/02/29 16:30:33;;;;;;;;;;;;;;;;;;5032346;28;20057;-69
2024/02/29 16:32:59;;;;;;;;;;;;;;;;;;5030984;28;19916;-68
2024/02/29 16:35:24;;;;;;;;;;;;;;;;;;5025360;28;20410;-67
2024/02/29 16:37:50;;;;;;;;;;;;;;;;;;5008443;28;19924;-67
2024/02/29 16:40:18;;;;;;;;;;;;;;;;;;5016594;28;20502;-67
2024/02/29 16:42:46;;;;;;;;;;;;;;;;;;5008952;28;19971;-67
2024/02/29 16:45:12;;;;;;;;;;;;;;;;;;5023671;28;19917;-68
2024/02/29 16:47:42;;;;;;;;;;;;;;;;;;5021165;28;20019;-67
2024/02/29 16:50:10;;;;;;;;;;;;;;;;;;5011649;28;19917;-68
2024/02/29 16:52:35;;;;;;;;;;;;;;;;;;5008014;28;20376;-67
2024/02/29 16:55:01;;;;;;;;;;;;;;;;;;5008856;28;19935;-68
2024/02/29 16:57:27;;;;;;;;;;;;;;;;;;5017859;28;21346;-66
2024/02/29 16:59:52;;;;;;;;;;;;;;;;;;5005575;28;20015;-67
2024/02/29 17:02:17;;;;;;;;;;;;;;;;;;5026279;28;20020;-67
2024/02/29 17:04:47;;;;;;;;;;;;;;;;;;5019696;28;19917;-67
2024/02/29 17:07:12;;;;;;;;;;;;;;;;;;5002918;28;19960;-67
2024/02/29 17:09:45;;;;;;;;;;;;;;;;;;5019621;28;20318;-70
2024/02/29 17:12:32;;;;;;;;;;;;;;;;;;5014400;28;20340;-67